Time;durP1;ratioP1;P1;durP2;ratioP2;P2;SDS_P1;SDS_P2;PMS_P1;PMS_P2;Temp;Humidity;BMP_temperature;BMP_pressure;BME280_temperature;BME280_humidity;BME280_pressure;Samples;Min_cycle;Max_cycle;Signal;HPM_P1;HPM_P2
2021/05/16 00:02:10;;;;;;;20.27;5.17;;;;;;;;;;5054056;28;20251;-56
2021/05/16 00:04:37;;;;;;;16.33;5.30;;;;;;;;;;5054051;28;20283;-57
2021/05/16 00:07:03;;;;;;;17.27;5.00;;;;;;;;;;5053514;28;20205;-49
2021/05/16 00:09:30;;;;;;;16.10;4.87;;;;;;;;;;5053919;28;20213;-52
2021/05/16 00:11:57;;;;;;;17.17;5.30;;;;;;;;;;5053743;28;20221;-55
2021/05/16 00:14:23;;;;;;;17.93;5.00;;;;;;;;;;5053788;28;20222;-56
2021/05/16 00:16:50;;;;;;;17.70;5.03;;;;;;;;;;5054026;28;20226;-55
2021/05/16 00:19:16;;;;;;;16.83;4.10;;;;;;;;;;5070623;28;20205;-57
2021/05/16 00:21:43;;;;;;;14.60;4.00;;;;;;;;;;5073427;28;20204;-56
2021/05/16 00:24:10;;;;;;;14.40;4.60;;;;;;;;;;5073632;28;20267;-52
2021/05/16 00:26:36;;;;;;;15.20;4.50;;;;;;;;;;5073153;28;20216;-54
2021/05/16 00:29:04;;;;;;;10.87;4.53;;;;;;;;;;5073627;28;20201;-54
2021/05/16 00:31:30;;;;;;;16.80;4.37;;;;;;;;;;5073558;28;20229;-54
2021/05/16 00:33:57;;;;;;;14.87;3.93;;;;;;;;;;5066219;28;20225;-55
2021/05/16 00:36:23;;;;;;;13.43;4.03;;;;;;;;;;5067935;28;20239;-55
2021/05/16 00:38:50;;;;;;;18.83;4.47;;;;;;;;;;5073306;28;20201;-56
2021/05/16 00:41:17;;;;;;;13.33;4.00;;;;;;;;;;5073057;28;20205;-52
2021/05/16 00:43:44;;;;;;;17.37;4.87;;;;;;;;;;5073386;28;20229;-55
2021/05/16 00:46:11;;;;;;;15.60;4.37;;;;;;;;;;5073031;28;20212;-57
2021/05/16 00:48:38;;;;;;;11.67;4.30;;;;;;;;;;5073735;28;20201;-57
2021/05/16 00:51:05;;;;;;;13.80;4.10;;;;;;;;;;5071188;28;20615;-55
2021/05/16 00:53:31;;;;;;;17.97;4.73;;;;;;;;;;5073309;28;20299;-57
2021/05/16 00:55:58;;;;;;;12.00;3.53;;;;;;;;;;5072879;28;20216;-56
2021/05/16 00:58:24;;;;;;;12.67;3.80;;;;;;;;;;5072804;28;20208;-53
2021/05/16 01:00:51;;;;;;;13.57;3.50;;;;;;;;;;5072793;28;20730;-55
2021/05/16 01:03:20;;;;;;;18.67;4.10;;;;;;;;;;5072846;28;20258;-55
2021/05/16 01:05:47;;;;;;;26.03;4.13;;;;;;;;;;5060833;28;20734;-51
2021/05/16 01:08:13;;;;;;;17.73;4.23;;;;;;;;;;5054813;28;20202;-55
2021/05/16 01:10:40;;;;;;;19.73;4.57;;;;;;;;;;5052714;28;20229;-57
2021/05/16 01:13:09;;;;;;;23.57;5.10;;;;;;;;;;5052760;28;20670;-56
2021/05/16 01:15:36;;;;;;;14.13;4.17;;;;;;;;;;5057379;28;20205;-54
2021/05/16 01:18:02;;;;;;;17.37;5.30;;;;;;;;;;5072515;28;20262;-56
2021/05/16 01:20:31;;;;;;;15.73;4.10;;;;;;;;;;5072344;28;20631;-56
2021/05/16 01:23:00;;;;;;;20.03;5.13;;;;;;;;;;5067200;28;20327;-56
2021/05/16 01:25:27;;;;;;;21.17;4.70;;;;;;;;;;5052659;28;20213;-53
2021/05/16 01:27:54;;;;;;;20.40;4.73;;;;;;;;;;5052789;28;20205;-55
2021/05/16 01:30:21;;;;;;;20.17;4.47;;;;;;;;;;5052276;28;20618;-56
2021/05/16 01:32:48;;;;;;;14.37;4.93;;;;;;;;;;5060408;28;20205;-56
2021/05/16 01:35:14;;;;;;;14.40;4.43;;;;;;;;;;5067715;28;20234;-56
2021/05/16 01:37:41;;;;;;;15.30;3.83;;;;;;;;;;5071558;28;20764;-56
2021/05/16 01:40:09;;;;;;;14.93;4.00;;;;;;;;;;5069846;28;20297;-56
2021/05/16 01:42:39;;;;;;;23.43;4.20;;;;;;;;;;5072221;28;20204;-55
2021/05/16 01:45:11;;;;;;;17.67;3.53;;;;;;;;;;5071812;28;20225;-53
2021/05/16 01:47:37;;;;;;;14.10;4.07;;;;;;;;;;5071912;28;20629;-54
2021/05/16 01:50:05;;;;;;;11.83;3.47;;;;;;;;;;5071278;28;20251;-54
2021/05/16 01:52:32;;;;;;;14.10;3.37;;;;;;;;;;5072041;28;20227;-57
2021/05/16 01:54:59;;;;;;;17.47;3.90;;;;;;;;;;5069399;28;20724;-55
2021/05/16 01:57:27;;;;;;;14.00;3.67;;;;;;;;;;5051835;28;20206;-56
2021/05/16 01:59:54;;;;;;;14.70;3.70;;;;;;;;;;5051645;28;20206;-56
2021/05/16 02:02:21;;;;;;;14.13;4.20;;;;;;;;;;5051575;28;20251;-57
2021/05/16 02:04:48;;;;;;;16.13;3.73;;;;;;;;;;5058988;28;20225;-53
2021/05/16 02:07:14;;;;;;;12.93;4.07;;;;;;;;;;5072023;28;20212;-55
2021/05/16 02:09:41;;;;;;;14.90;3.80;;;;;;;;;;5071462;28;20209;-55
2021/05/16 02:12:08;;;;;;;15.93;3.80;;;;;;;;;;5069783;28;20750;-56
2021/05/16 02:14:35;;;;;;;12.10;3.47;;;;;;;;;;5071511;28;20251;-52
2021/05/16 02:17:03;;;;;;;13.17;3.60;;;;;;;;;;5071531;28;20212;-57
2021/05/16 02:19:29;;;;;;;20.20;3.90;;;;;;;;;;5071709;28;20213;-55
2021/05/16 02:21:56;;;;;;;13.77;3.53;;;;;;;;;;5071277;28;20201;-57
2021/05/16 02:24:23;;;;;;;20.37;3.80;;;;;;;;;;5071504;28;20228;-54
2021/05/16 02:26:49;;;;;;;10.40;3.17;;;;;;;;;;5071485;28;20205;-54
2021/05/16 02:29:16;;;;;;;17.93;3.83;;;;;;;;;;5065220;28;20271;-56
2021/05/16 02:31:44;;;;;;;10.93;3.57;;;;;;;;;;5050909;28;20221;-56
2021/05/16 02:34:10;;;;;;;15.17;3.07;;;;;;;;;;5051504;28;20244;-56
2021/05/16 02:36:37;;;;;;;20.20;3.83;;;;;;;;;;5067830;28;20252;-49
2021/05/16 02:39:04;;;;;;;16.03;3.60;;;;;;;;;;5071534;28;20205;-55
2021/05/16 02:41:31;;;;;;;22.10;4.10;;;;;;;;;;5070969;28;20669;-56
2021/05/16 02:43:57;;;;;;;17.50;4.00;;;;;;;;;;5069212;28;20270;-57
2021/05/16 02:46:24;;;;;;;14.43;3.60;;;;;;;;;;5053706;28;20758;-55
2021/05/16 02:48:51;;;;;;;13.93;3.53;;;;;;;;;;5051881;28;20212;-54
2021/05/16 02:51:20;;;;;;;18.33;3.27;;;;;;;;;;5067869;28;20829;-55
2021/05/16 02:53:46;;;;;;;16.53;3.73;;;;;;;;;;5075417;28;20232;-54
2021/05/16 02:56:13;;;;;;;21.47;3.60;;;;;;;;;;5075424;28;20792;-51
2021/05/16 02:58:39;;;;;;;13.13;3.10;;;;;;;;;;5075116;28;20208;-54
2021/05/16 03:01:06;;;;;;;12.30;3.40;;;;;;;;;;5073544;28;20239;-57
2021/05/16 03:03:32;;;;;;;22.87;3.67;;;;;;;;;;5075047;28;20224;-52
2021/05/16 03:06:00;;;;;;;15.87;3.53;;;;;;;;;;5074878;28;20212;-57
2021/05/16 03:08:26;;;;;;;13.20;3.47;;;;;;;;;;5075045;28;20282;-55
2021/05/16 03:10:53;;;;;;;10.57;3.10;;;;;;;;;;5074996;28;20221;-52
2021/05/16 03:13:19;;;;;;;21.57;4.10;;;;;;;;;;5074547;28;20584;-55
2021/05/16 03:15:46;;;;;;;15.97;4.13;;;;;;;;;;5075087;28;20201;-50
2021/05/16 03:18:12;;;;;;;22.70;4.13;;;;;;;;;;5071160;28;20582;-55
2021/05/16 03:20:39;;;;;;;14.37;3.47;;;;;;;;;;5063624;28;20206;-54
2021/05/16 03:23:06;;;;;;;16.30;3.73;;;;;;;;;;5054644;28;20213;-54
2021/05/16 03:25:35;;;;;;;19.67;3.77;;;;;;;;;;5054695;28;20240;-50
2021/05/16 03:28:01;;;;;;;21.27;3.20;;;;;;;;;;5054500;28;20229;-50
2021/05/16 03:30:28;;;;;;;17.80;3.30;;;;;;;;;;5054598;28;20632;-50
2021/05/16 03:32:54;;;;;;;16.30;3.63;;;;;;;;;;5054759;28;20254;-57
2021/05/16 03:35:21;;;;;;;20.77;4.10;;;;;;;;;;5054612;28;20419;-57
2021/05/16 03:37:47;;;;;;;16.30;3.87;;;;;;;;;;5055513;28;20213;-57
2021/05/16 03:40:15;;;;;;;14.50;4.03;;;;;;;;;;5057845;28;20816;-57
2021/05/16 03:42:42;;;;;;;17.33;3.57;;;;;;;;;;5058080;28;20210;-52
2021/05/16 03:45:09;;;;;;;13.77;3.20;;;;;;;;;;5054283;28;20248;-56
2021/05/16 03:47:36;;;;;;;22.00;3.93;;;;;;;;;;5054672;28;20263;-55
2021/05/16 03:50:03;;;;;;;22.13;3.87;;;;;;;;;;5054161;28;20209;-54
2021/05/16 03:52:30;;;;;;;14.77;3.77;;;;;;;;;;5053926;28;20783;-53
2021/05/16 03:54:57;;;;;;;23.17;3.87;;;;;;;;;;5053575;28;20257;-57
2021/05/16 03:57:24;;;;;;;15.47;4.00;;;;;;;;;;5054238;28;20213;-57
2021/05/16 03:59:51;;;;;;;15.37;3.73;;;;;;;;;;5054065;28;20213;-51
2021/05/16 04:02:18;;;;;;;18.17;3.23;;;;;;;;;;5053574;28;20248;-53
2021/05/16 04:04:45;;;;;;;14.53;4.30;;;;;;;;;;5053598;28;20225;-55
2021/05/16 04:07:11;;;;;;;9.10;3.53;;;;;;;;;;5054311;28;20244;-56
2021/05/16 04:09:38;;;;;;;15.40;4.40;;;;;;;;;;5053744;28;20793;-56
2021/05/16 04:12:05;;;;;;;15.87;4.20;;;;;;;;;;5054116;28;20232;-54
2021/05/16 04:14:32;;;;;;;11.70;3.50;;;;;;;;;;5053592;28;20279;-54
2021/05/16 04:16:58;;;;;;;16.97;3.57;;;;;;;;;;5053737;28;20213;-51
2021/05/16 04:19:25;;;;;;;14.33;3.97;;;;;;;;;;5054003;28;20352;-55
2021/05/16 04:21:51;;;;;;;16.93;4.00;;;;;;;;;;5053468;28;20205;-50
2021/05/16 04:24:18;;;;;;;15.63;3.50;;;;;;;;;;5053397;28;20256;-54
2021/05/16 04:26:44;;;;;;;14.53;3.87;;;;;;;;;;5053556;28;20205;-54
2021/05/16 04:29:11;;;;;;;9.57;3.40;;;;;;;;;;5053776;28;20247;-57
2021/05/16 04:31:39;;;;;;;11.67;3.60;;;;;;;;;;5053354;28;20346;-53
2021/05/16 04:34:05;;;;;;;8.37;3.57;;;;;;;;;;5053234;28;20230;-54
2021/05/16 04:36:32;;;;;;;15.27;4.40;;;;;;;;;;5053438;28;20213;-55
2021/05/16 04:38:58;;;;;;;16.37;4.23;;;;;;;;;;5053176;28;20684;-55
2021/05/16 04:41:25;;;;;;;19.13;4.77;;;;;;;;;;5053423;28;20208;-56
2021/05/16 04:43:51;;;;;;;14.43;4.07;;;;;;;;;;5052978;28;20230;-54
2021/05/16 04:46:18;;;;;;;11.37;4.07;;;;;;;;;;5053105;28;20593;-55
2021/05/16 04:48:45;;;;;;;9.13;3.90;;;;;;;;;;5053514;28;20221;-55
2021/05/16 04:51:11;;;;;;;15.87;3.93;;;;;;;;;;5052544;28;20218;-56
2021/05/16 04:53:38;;;;;;;20.27;4.30;;;;;;;;;;5053105;28;20233;-55
2021/05/16 04:56:05;;;;;;;15.47;4.13;;;;;;;;;;5053176;28;20579;-53
2021/05/16 04:58:32;;;;;;;18.47;4.93;;;;;;;;;;5053112;28;20205;-57
2021/05/16 05:00:58;;;;;;;11.83;4.20;;;;;;;;;;5053010;28;20201;-54
2021/05/16 05:03:25;;;;;;;16.13;4.37;;;;;;;;;;5052648;28;20606;-55
2021/05/16 05:05:53;;;;;;;16.87;4.70;;;;;;;;;;5052689;28;20210;-57
2021/05/16 05:08:20;;;;;;;14.23;4.93;;;;;;;;;;5052708;28;20675;-55
2021/05/16 05:10:46;;;;;;;10.43;3.93;;;;;;;;;;5052800;28;20205;-57
2021/05/16 05:13:13;;;;;;;13.10;4.33;;;;;;;;;;5051869;28;20201;-52
2021/05/16 05:15:40;;;;;;;14.27;3.90;;;;;;;;;;5052611;28;20260;-57
2021/05/16 05:18:06;;;;;;;13.20;3.93;;;;;;;;;;5052845;28;20206;-53
2021/05/16 05:20:33;;;;;;;12.87;3.63;;;;;;;;;;5050612;28;20199;-52
2021/05/16 05:23:00;;;;;;;10.80;3.83;;;;;;;;;;5052794;28;20216;-51
2021/05/16 05:25:27;;;;;;;14.23;3.93;;;;;;;;;;5052465;28;20245;-54
2021/05/16 05:27:54;;;;;;;14.70;4.53;;;;;;;;;;5052719;28;20297;-52
2021/05/16 05:30:21;;;;;;;16.67;4.20;;;;;;;;;;5052337;28;20317;-52
2021/05/16 05:32:48;;;;;;;16.47;4.10;;;;;;;;;;5052054;28;20596;-55
2021/05/16 05:35:14;;;;;;;13.97;4.20;;;;;;;;;;5052578;28;20994;-55
2021/05/16 05:37:41;;;;;;;14.80;4.70;;;;;;;;;;5050867;28;20213;-57
2021/05/16 05:40:09;;;;;;;14.77;4.33;;;;;;;;;;5052064;28;20691;-57
2021/05/16 05:42:36;;;;;;;11.47;4.20;;;;;;;;;;5052112;28;20250;-56
2021/05/16 05:45:03;;;;;;;12.60;3.80;;;;;;;;;;5056863;28;20244;-56
2021/05/16 05:47:29;;;;;;;16.53;4.13;;;;;;;;;;5063659;28;20206;-55
2021/05/16 05:49:56;;;;;;;15.27;4.20;;;;;;;;;;5071900;28;20214;-57
2021/05/16 05:52:22;;;;;;;15.77;4.07;;;;;;;;;;5072477;28;20283;-56
2021/05/16 05:54:49;;;;;;;15.00;4.07;;;;;;;;;;5070946;28;20227;-55
2021/05/16 05:57:16;;;;;;;12.60;3.93;;;;;;;;;;5071797;28;20202;-56
2021/05/16 05:59:42;;;;;;;13.90;3.77;;;;;;;;;;5071828;28;20237;-57
2021/05/16 06:02:09;;;;;;;12.80;4.00;;;;;;;;;;5071456;28;20214;-56
2021/05/16 06:04:35;;;;;;;12.40;3.93;;;;;;;;;;5063327;28;20585;-55
2021/05/16 06:07:04;;;;;;;16.07;4.03;;;;;;;;;;5071473;28;20212;-54
2021/05/16 06:09:31;;;;;;;12.40;3.67;;;;;;;;;;5069879;28;20682;-57
2021/05/16 06:11:58;;;;;;;11.40;3.53;;;;;;;;;;5071788;28;20258;-56
2021/05/16 06:14:25;;;;;;;15.07;4.10;;;;;;;;;;5071418;28;20731;-57
2021/05/16 06:16:52;;;;;;;13.37;3.80;;;;;;;;;;5071687;28;20215;-57
2021/05/16 06:19:18;;;;;;;12.47;4.13;;;;;;;;;;5071419;28;20204;-56
2021/05/16 06:21:45;;;;;;;10.63;3.93;;;;;;;;;;5071654;28;20205;-54
2021/05/16 06:24:13;;;;;;;12.37;3.57;;;;;;;;;;5071324;28;20230;-54
2021/05/16 06:26:42;;;;;;;10.57;3.60;;;;;;;;;;5069814;28;20585;-56
2021/05/16 06:29:09;;;;;;;12.30;4.00;;;;;;;;;;5071282;28;20215;-56
2021/05/16 06:31:36;;;;;;;15.10;4.20;;;;;;;;;;5071429;28;20232;-55
2021/05/16 06:34:03;;;;;;;10.97;4.60;;;;;;;;;;5065786;28;20251;-57
2021/05/16 06:36:30;;;;;;;17.30;4.33;;;;;;;;;;5051180;28;20204;-55
2021/05/16 06:38:56;;;;;;;12.77;4.00;;;;;;;;;;5051266;28;20227;-54
2021/05/16 06:41:23;;;;;;;18.20;4.27;;;;;;;;;;5051373;28;20215;-56
2021/05/16 06:43:50;;;;;;;15.47;4.27;;;;;;;;;;5064908;28;20225;-54
2021/05/16 06:46:17;;;;;;;17.10;4.87;;;;;;;;;;5071547;28;20219;-57
2021/05/16 06:48:44;;;;;;;12.17;3.93;;;;;;;;;;5071541;28;20222;-55
2021/05/16 06:51:11;;;;;;;22.27;4.57;;;;;;;;;;5071040;28;20282;-56
2021/05/16 06:53:38;;;;;;;16.17;4.47;;;;;;;;;;5071589;28;20323;-54
2021/05/16 06:56:07;;;;;;;13.87;4.20;;;;;;;;;;5068805;28;20201;-54
2021/05/16 06:58:34;;;;;;;11.03;3.43;;;;;;;;;;5070315;28;20824;-57
2021/05/16 07:01:00;;;;;;;12.63;4.30;;;;;;;;;;5069334;28;20208;-57
2021/05/16 07:03:27;;;;;;;15.13;4.87;;;;;;;;;;5070499;28;20266;-55
2021/05/16 07:05:54;;;;;;;15.57;5.23;;;;;;;;;;5071059;28;20298;-54
2021/05/16 07:08:21;;;;;;;15.17;5.00;;;;;;;;;;5071240;28;20216;-56
2021/05/16 07:10:47;;;;;;;15.13;4.70;;;;;;;;;;5070780;28;20273;-55
2021/05/16 07:13:14;;;;;;;14.03;5.43;;;;;;;;;;5071360;28;20236;-57
2021/05/16 07:15:40;;;;;;;16.73;5.20;;;;;;;;;;5066636;28;20238;-56
2021/05/16 07:18:07;;;;;;;14.90;4.90;;;;;;;;;;5071393;28;20205;-58
2021/05/16 07:20:33;;;;;;;8.70;4.20;;;;;;;;;;5070602;28;20207;-56
2021/05/16 07:23:01;;;;;;;17.63;4.83;;;;;;;;;;5070788;28;20205;-55
2021/05/16 07:25:27;;;;;;;16.43;4.13;;;;;;;;;;5070703;28;20266;-54
2021/05/16 07:27:54;;;;;;;16.53;4.67;;;;;;;;;;5071404;28;20245;-55
2021/05/16 07:30:21;;;;;;;13.30;4.40;;;;;;;;;;5070778;28;20204;-55
2021/05/16 07:32:48;;;;;;;13.40;4.90;;;;;;;;;;5062427;28;20832;-55
2021/05/16 07:35:14;;;;;;;13.80;4.83;;;;;;;;;;5056032;28;20633;-59
2021/05/16 07:37:42;;;;;;;11.93;4.40;;;;;;;;;;5075753;28;20208;-58
2021/05/16 07:40:11;;;;;;;9.67;4.53;;;;;;;;;;5077577;28;21041;-57
2021/05/16 07:42:37;;;;;;;11.17;4.53;;;;;;;;;;5071479;28;20208;-61
2021/05/16 07:45:05;;;;;;;10.67;4.00;;;;;;;;;;5079777;28;20236;-58
2021/05/16 07:47:32;;;;;;;9.23;4.47;;;;;;;;;;5079887;28;20204;-59
2021/05/16 07:49:58;;;;;;;14.70;4.10;;;;;;;;;;5073336;28;20209;-62
2021/05/16 07:52:25;;;;;;;15.50;4.63;;;;;;;;;;5073666;28;20588;-61
2021/05/16 07:54:51;;;;;;;12.50;4.27;;;;;;;;;;5104336;22;20235;-62
2021/05/16 07:57:18;;;;;;;12.63;4.57;;;;;;;;;;5114962;28;20612;-61
2021/05/16 07:59:45;;;;;;;13.97;4.77;;;;;;;;;;5114304;28;20199;-63
2021/05/16 08:02:12;;;;;;;16.17;4.53;;;;;;;;;;5111181;28;20199;-61
2021/05/16 08:04:38;;;;;;;13.77;4.53;;;;;;;;;;5079745;28;20315;-60
2021/05/16 08:07:05;;;;;;;12.90;4.53;;;;;;;;;;5073692;28;20204;-60
2021/05/16 08:09:31;;;;;;;12.27;5.13;;;;;;;;;;5072966;28;20216;-59
2021/05/16 08:11:58;;;;;;;14.97;5.30;;;;;;;;;;5073236;28;20236;-60
2021/05/16 08:14:28;;;;;;;15.37;5.30;;;;;;;;;;5072831;28;20724;-61
2021/05/16 08:16:54;;;;;;;19.00;5.60;;;;;;;;;;5073743;28;20660;-60
2021/05/16 08:19:21;;;;;;;16.87;5.63;;;;;;;;;;5073120;28;20200;-61
2021/05/16 08:21:47;;;;;;;14.33;5.23;;;;;;;;;;5073197;28;20213;-61
2021/05/16 08:24:14;;;;;;;18.87;5.17;;;;;;;;;;5073046;28;20227;-63
2021/05/16 08:26:41;;;;;;;15.57;5.00;;;;;;;;;;5072387;28;20208;-61
2021/05/16 08:29:08;;;;;;;12.83;4.80;;;;;;;;;;5072960;28;20627;-61
2021/05/16 08:31:36;;;;;;;14.57;5.23;;;;;;;;;;5073096;28;20224;-61
2021/05/16 08:34:03;;;;;;;12.67;4.67;;;;;;;;;;5072298;28;20890;-60
2021/05/16 08:36:31;;;;;;;18.20;5.60;;;;;;;;;;5073175;28;20309;-53
2021/05/16 08:38:58;;;;;;;12.63;4.80;;;;;;;;;;5073530;28;20297;-62
2021/05/16 08:41:24;;;;;;;12.43;4.90;;;;;;;;;;5073309;28;20197;-58
2021/05/16 08:43:51;;;;;;;14.30;4.83;;;;;;;;;;5072857;28;20725;-59
2021/05/16 08:46:18;;;;;;;15.20;4.50;;;;;;;;;;5073446;28;20216;-62
2021/05/16 08:48:45;;;;;;;11.20;4.50;;;;;;;;;;5072867;28;20570;-52
2021/05/16 08:51:12;;;;;;;15.83;4.50;;;;;;;;;;5073394;28;20212;-53
2021/05/16 08:53:38;;;;;;;12.80;4.53;;;;;;;;;;5072741;28;20225;-61
2021/05/16 08:56:06;;;;;;;17.13;5.03;;;;;;;;;;5073216;28;20681;-58
2021/05/16 08:58:33;;;;;;;17.93;4.47;;;;;;;;;;5073279;28;20204;-56
2021/05/16 09:00:59;;;;;;;14.07;3.60;;;;;;;;;;5073505;28;20205;-55
2021/05/16 09:03:26;;;;;;;13.37;4.47;;;;;;;;;;5073082;28;20225;-56
2021/05/16 09:05:54;;;;;;;15.97;3.70;;;;;;;;;;5073521;28;20205;-54
2021/05/16 09:08:22;;;;;;;15.60;4.23;;;;;;;;;;5073107;28;20200;-58
2021/05/16 09:10:50;;;;;;;13.90;4.40;;;;;;;;;;5072509;28;20201;-57
2021/05/16 09:13:17;;;;;;;12.10;3.37;;;;;;;;;;5072885;28;20324;-56
2021/05/16 09:15:58;;;;;;;13.60;3.47;;;;;;;;;;5072957;28;20205;-57
2021/05/16 09:18:32;;;;;;;8.30;2.90;;;;;;;;;;5073469;28;20638;-56
2021/05/16 09:21:13;;;;;;;9.97;4.80;;;;;;;;;;5072925;28;20577;-57
2021/05/16 09:23:41;;;;;;;10.03;4.10;;;;;;;;;;5073273;28;20248;-54
2021/05/16 09:26:12;;;;;;;9.57;3.87;;;;;;;;;;5072946;28;20234;-55
2021/05/16 09:28:39;;;;;;;9.33;5.00;;;;;;;;;;5073187;28;20550;-58
2021/05/16 09:31:07;;;;;;;11.40;4.67;;;;;;;;;;5072694;28;20569;-56
2021/05/16 09:33:34;;;;;;;9.73;4.97;;;;;;;;;;5072815;28;20316;-58
2021/05/16 09:36:05;;;;;;;9.13;4.10;;;;;;;;;;5072998;28;20596;-58
2021/05/16 09:38:32;;;;;;;6.43;4.00;;;;;;;;;;5072782;28;20695;-58
2021/05/16 09:41:00;;;;;;;7.97;3.60;;;;;;;;;;5072626;28;20309;-57
2021/05/16 09:43:27;;;;;;;11.93;4.17;;;;;;;;;;5070425;28;20236;-59
2021/05/16 09:45:57;;;;;;;6.43;3.30;;;;;;;;;;5091799;28;20673;-59
2021/05/16 09:48:30;;;;;;;12.97;3.67;;;;;;;;;;5093012;28;20625;-55
2021/05/16 09:51:10;;;;;;;8.83;3.43;;;;;;;;;;5092519;28;20423;-53
2021/05/16 09:53:50;;;;;;;10.50;4.17;;;;;;;;;;5092268;28;20240;-55
2021/05/16 09:56:19;;;;;;;8.13;2.53;;;;;;;;;;5092296;28;20258;-56
2021/05/16 09:58:46;;;;;;;12.30;3.03;;;;;;;;;;5091874;28;20211;-59
2021/05/16 10:01:14;;;;;;;10.50;2.63;;;;;;;;;;5092087;28;20214;-59
2021/05/16 10:03:41;;;;;;;6.07;2.30;;;;;;;;;;5091988;28;20223;-59
2021/05/16 10:06:08;;;;;;;9.73;2.67;;;;;;;;;;5092093;28;20219;-59
2021/05/16 10:08:35;;;;;;;6.90;2.40;;;;;;;;;;5092417;28;20250;-58
2021/05/16 10:11:02;;;;;;;9.77;3.50;;;;;;;;;;5092047;28;20208;-57
2021/05/16 10:13:31;;;;;;;6.47;2.53;;;;;;;;;;5092137;28;20231;-54
2021/05/16 10:15:58;;;;;;;8.50;2.57;;;;;;;;;;5091742;28;20218;-56
2021/05/16 10:18:26;;;;;;;10.73;2.73;;;;;;;;;;5091841;28;20204;-57
2021/05/16 10:20:53;;;;;;;10.53;2.80;;;;;;;;;;5092132;28;20257;-57
2021/05/16 10:23:32;;;;;;;9.70;2.90;;;;;;;;;;5091955;28;20202;-58
2021/05/16 10:26:13;;;;;;;6.43;2.63;;;;;;;;;;5091640;28;20620;-52
2021/05/16 10:28:53;;;;;;;7.57;2.70;;;;;;;;;;5091762;28;20584;-55
2021/05/16 10:31:38;;;;;;;6.57;2.77;;;;;;;;;;5092093;28;20200;-57
2021/05/16 10:34:20;;;;;;;5.23;2.20;;;;;;;;;;5091622;28;20235;-59
2021/05/16 10:36:46;;;;;;;4.47;2.23;;;;;;;;;;5091938;28;20208;-61
2021/05/16 10:39:33;;;;;;;6.40;2.00;;;;;;;;;;5092077;28;20208;-60
2021/05/16 10:42:11;;;;;;;5.30;1.63;;;;;;;;;;5091794;28;20196;-52
2021/05/16 10:44:40;;;;;;;5.60;1.60;;;;;;;;;;5091664;28;20232;-54
2021/05/16 10:47:07;;;;;;;4.37;1.60;;;;;;;;;;5071266;28;20264;-55
2021/05/16 10:49:33;;;;;;;6.73;1.80;;;;;;;;;;5071294;28;20213;-58
2021/05/16 10:52:26;;;;;;;5.17;1.40;;;;;;;;;;5071297;28;20629;-54
2021/05/16 10:54:53;;;;;;;6.87;1.70;;;;;;;;;;5070840;28;20241;-59
2021/05/16 10:57:23;;;;;;;4.47;1.50;;;;;;;;;;5070962;28;20205;-63
2021/05/16 10:59:51;;;;;;;6.10;1.90;;;;;;;;;;5071239;28;20213;-63
2021/05/16 11:02:33;;;;;;;7.03;1.73;;;;;;;;;;5071407;28;20233;-64
2021/05/16 11:04:59;;;;;;;29.03;17.20;;;;;;;;;;5071017;28;20228;-58
2021/05/16 11:07:32;;;;;;;6.20;2.07;;;;;;;;;;5071730;28;20270;-57
2021/05/16 11:10:14;;;;;;;3.93;1.30;;;;;;;;;;5071121;28;20666;-58
2021/05/16 11:12:40;;;;;;;2.70;1.00;;;;;;;;;;5074786;28;20232;-55
2021/05/16 11:15:08;;;;;;;3.27;1.27;;;;;;;;;;5074692;28;20262;-60
2021/05/16 11:17:35;;;;;;;3.50;1.00;;;;;;;;;;5075239;28;20208;-60
2021/05/16 11:20:01;;;;;;;4.20;1.00;;;;;;;;;;5075107;28;20209;-59
2021/05/16 11:22:28;;;;;;;5.50;1.50;;;;;;;;;;5075234;28;20197;-58
2021/05/16 11:24:54;;;;;;;3.80;1.40;;;;;;;;;;5074684;28;20224;-62
2021/05/16 11:27:22;;;;;;;3.50;1.40;;;;;;;;;;5075265;28;20578;-61
2021/05/16 11:29:53;;;;;;;4.00;1.23;;;;;;;;;;5074660;28;20696;-64
2021/05/16 11:32:28;;;;;;;3.10;1.23;;;;;;;;;;5074959;28;20232;-63
2021/05/16 11:35:08;;;;;;;6.27;2.10;;;;;;;;;;5074290;28;20232;-63
2021/05/16 11:37:35;;;;;;;13.60;3.83;;;;;;;;;;5074449;28;20208;-63
2021/05/16 11:40:21;;;;;;;5.57;1.37;;;;;;;;;;5074686;28;20575;-63
2021/05/16 11:42:48;;;;;;;4.37;1.33;;;;;;;;;;5074709;28;20685;-63
2021/05/16 11:45:16;;;;;;;5.90;1.40;;;;;;;;;;5074348;28;20232;-63
2021/05/16 11:47:44;;;;;;;7.53;1.60;;;;;;;;;;5074527;28;20212;-63
2021/05/16 11:50:12;;;;;;;5.87;1.57;;;;;;;;;;5074984;28;20209;-64
2021/05/16 11:52:38;;;;;;;2.83;1.53;;;;;;;;;;5075543;28;20260;-64
2021/05/16 11:55:06;;;;;;;5.33;1.43;;;;;;;;;;5075058;28;20233;-63
2021/05/16 11:57:34;;;;;;;2.90;1.37;;;;;;;;;;5075465;28;20208;-63
2021/05/16 12:00:01;;;;;;;5.60;1.60;;;;;;;;;;5085933;28;20234;-64
2021/05/16 12:02:34;;;;;;;3.87;1.20;;;;;;;;;;5086153;28;20200;-64
2021/05/16 12:05:02;;;;;;;4.97;1.90;;;;;;;;;;5082390;28;20270;-64
2021/05/16 12:07:28;;;;;;;5.10;1.20;;;;;;;;;;5074598;28;20225;-63
2021/05/16 12:09:55;;;;;;;6.60;1.60;;;;;;;;;;5073837;28;20673;-63
2021/05/16 12:12:23;;;;;;;5.43;1.47;;;;;;;;;;5074173;28;20228;-63
2021/05/16 12:14:50;;;;;;;3.93;1.30;;;;;;;;;;5073545;28;20225;-64
2021/05/16 12:17:17;;;;;;;4.17;1.17;;;;;;;;;;5074140;28;20297;-64
2021/05/16 12:19:43;;;;;;;4.97;1.07;;;;;;;;;;5073744;28;20209;-64
2021/05/16 12:22:12;;;;;;;4.80;1.20;;;;;;;;;;5073454;28;20205;-64
2021/05/16 12:24:42;;;;;;;3.47;1.07;;;;;;;;;;5073490;28;20295;-64
2021/05/16 12:27:10;;;;;;;3.63;1.40;;;;;;;;;;5073597;28;20205;-64
2021/05/16 12:29:38;;;;;;;6.23;1.27;;;;;;;;;;5073407;28;20693;-64
2021/05/16 12:32:04;;;;;;;2.47;1.20;;;;;;;;;;5073717;28;20236;-64
2021/05/16 12:34:31;;;;;;;4.50;1.17;;;;;;;;;;5073183;28;20755;-63
2021/05/16 12:36:59;;;;;;;3.97;1.20;;;;;;;;;;5073575;28;20212;-63
2021/05/16 12:39:36;;;;;;;5.00;1.20;;;;;;;;;;5073268;28;20204;-63
2021/05/16 12:42:03;;;;;;;5.37;1.30;;;;;;;;;;5073154;28;20811;-64
2021/05/16 12:44:30;;;;;;;4.97;1.40;;;;;;;;;;5073158;28;20229;-64
2021/05/16 12:46:57;;;;;;;4.70;1.37;;;;;;;;;;5073553;28;20224;-64
2021/05/16 12:49:24;;;;;;;4.40;1.30;;;;;;;;;;5073247;28;20209;-64
2021/05/16 12:51:55;;;;;;;4.97;1.30;;;;;;;;;;5073128;28;20233;-64
2021/05/16 12:54:23;;;;;;;5.53;1.50;;;;;;;;;;5072654;28;20245;-64
2021/05/16 12:56:57;;;;;;;5.43;1.67;;;;;;;;;;5073546;28;20255;-63
2021/05/16 12:59:25;;;;;;;4.17;1.80;;;;;;;;;;5073594;28;20278;-64
2021/05/16 13:01:52;;;;;;;5.37;1.57;;;;;;;;;;5072885;28;20201;-64
2021/05/16 13:04:19;;;;;;;3.37;1.47;;;;;;;;;;5072763;28;20221;-64
2021/05/16 13:06:47;;;;;;;4.53;1.37;;;;;;;;;;5073040;28;20204;-64
2021/05/16 13:09:16;;;;;;;3.20;1.20;;;;;;;;;;5072685;28;20730;-64
2021/05/16 13:11:46;;;;;;;5.40;1.33;;;;;;;;;;5072774;28;20260;-64
2021/05/16 13:14:22;;;;;;;7.67;1.60;;;;;;;;;;5072300;28;20248;-63
2021/05/16 13:16:49;;;;;;;3.83;1.20;;;;;;;;;;5072910;28;20209;-61
2021/05/16 13:19:15;;;;;;;6.13;1.33;;;;;;;;;;5072962;28;20650;-62
2021/05/16 13:21:46;;;;;;;4.60;1.30;;;;;;;;;;5072378;28;20213;-61
2021/05/16 13:24:12;;;;;;;5.27;1.20;;;;;;;;;;5072158;28;20642;-62
2021/05/16 13:26:40;;;;;;;4.33;1.47;;;;;;;;;;5072730;28;20209;-61
2021/05/16 13:29:08;;;;;;;6.97;1.40;;;;;;;;;;5072844;28;20201;-62
2021/05/16 13:31:35;;;;;;;5.53;1.50;;;;;;;;;;5072234;28;20205;-66
2021/05/16 13:34:02;;;;;;;4.43;1.60;;;;;;;;;;5071757;28;20572;-66
2021/05/16 13:36:28;;;;;;;8.37;2.03;;;;;;;;;;5072483;28;20216;-66
2021/05/16 13:38:55;;;;;;;3.07;1.30;;;;;;;;;;5072714;28;20212;-65
2021/05/16 13:41:21;;;;;;;4.47;1.07;;;;;;;;;;5072567;28;20205;-65
2021/05/16 13:43:48;;;;;;;3.97;1.30;;;;;;;;;;5072221;28;20343;-65
2021/05/16 13:46:15;;;;;;;6.67;1.40;;;;;;;;;;5072120;28;20541;-65
2021/05/16 13:48:42;;;;;;;6.30;1.60;;;;;;;;;;5071749;28;20200;-64
2021/05/16 13:51:09;;;;;;;3.83;1.30;;;;;;;;;;5072364;28;20619;-64
2021/05/16 13:53:35;;;;;;;6.33;1.20;;;;;;;;;;5071350;28;20280;-65
2021/05/16 13:56:02;;;;;;;5.70;1.57;;;;;;;;;;5071801;28;20587;-64
2021/05/16 13:58:28;;;;;;;4.60;1.37;;;;;;;;;;5072063;28;20209;-66
2021/05/16 14:00:55;;;;;;;4.77;1.50;;;;;;;;;;5071636;28;20722;-65
2021/05/16 14:03:22;;;;;;;7.27;1.40;;;;;;;;;;5071668;28;20204;-63
2021/05/16 14:05:50;;;;;;;3.57;1.33;;;;;;;;;;5071561;28;20209;-63
2021/05/16 14:08:17;;;;;;;4.97;1.40;;;;;;;;;;5071546;28;20212;-63
2021/05/16 14:10:43;;;;;;;7.77;1.40;;;;;;;;;;5071577;28;20211;-60
2021/05/16 14:13:10;;;;;;;5.43;1.30;;;;;;;;;;5071432;28;20224;-61
2021/05/16 14:15:36;;;;;;;4.67;1.90;;;;;;;;;;5071359;28;20216;-62
2021/05/16 14:18:03;;;;;;;4.53;1.43;;;;;;;;;;5071241;28;20205;-61
2021/05/16 14:20:29;;;;;;;3.00;1.10;;;;;;;;;;5071587;28;20205;-61
2021/05/16 14:22:57;;;;;;;4.43;1.13;;;;;;;;;;5071638;28;20209;-62
2021/05/16 14:25:23;;;;;;;3.60;1.10;;;;;;;;;;5071263;28;20236;-61
2021/05/16 14:27:50;;;;;;;4.23;0.90;;;;;;;;;;5071510;28;20209;-61
2021/05/16 14:30:17;;;;;;;4.10;1.30;;;;;;;;;;5071155;28;20209;-63
2021/05/16 14:32:44;;;;;;;4.60;1.20;;;;;;;;;;5071364;28;20233;-64
2021/05/16 14:35:10;;;;;;;2.63;1.10;;;;;;;;;;5071335;28;20235;-65
2021/05/16 14:37:37;;;;;;;4.77;1.03;;;;;;;;;;5071550;28;20212;-64